sensor_id;sensor_type;location;lat;lon;timestamp;pressure;altitude;pressure_sealevel;temperature;humidity
66703;BME280;60933;46.398;-63.798;2023-05-29T00:01:26;100681.53;;;15.71;53.02
66703;BME280;60933;46.398;-63.798;2023-05-29T00:03:52;100681.09;;;15.61;52.97
66703;BME280;60933;46.398;-63.798;2023-05-29T00:06:21;100685.97;;;15.49;53.28
66703;BME280;60933;46.398;-63.798;2023-05-29T00:08:47;100701.97;;;15.40;53.38
66703;BME280;60933;46.398;-63.798;2023-05-29T00:11:13;100710.91;;;15.34;53.15
66703;BME280;60933;46.398;-63.798;2023-05-29T00:13:39;100705.19;;;15.26;53.34
66703;BME280;60933;46.398;-63.798;2023-05-29T00:16:06;100713.28;;;15.20;53.43
66703;BME280;60933;46.398;-63.798;2023-05-29T00:18:32;100719.66;;;15.13;53.68
66703;BME280;60933;46.398;-63.798;2023-05-29T00:20:58;100715.66;;;15.06;53.99
66703;BME280;60933;46.398;-63.798;2023-05-29T00:23:24;100739.44;;;14.96;54.44
66703;BME280;60933;46.398;-63.798;2023-05-29T00:25:50;100743.50;;;14.83;54.91
66703;BME280;60933;46.398;-63.798;2023-05-29T00:28:17;100750.75;;;14.75;55.02
66703;BME280;60933;46.398;-63.798;2023-05-29T00:30:43;100759.88;;;14.63;54.57
66703;BME280;60933;46.398;-63.798;2023-05-29T00:33:09;100762.75;;;14.56;55.04
66703;BME280;60933;46.398;-63.798;2023-05-29T00:35:35;100771.75;;;14.48;55.55
66703;BME280;60933;46.398;-63.798;2023-05-29T00:38:01;100775.63;;;14.37;55.38
66703;BME280;60933;46.398;-63.798;2023-05-29T00:40:27;100782.88;;;14.29;55.76
66703;BME280;60933;46.398;-63.798;2023-05-29T00:42:53;100790.06;;;14.22;55.69
66703;BME280;60933;46.398;-63.798;2023-05-29T00:45:19;100797.25;;;14.16;55.90
66703;BME280;60933;46.398;-63.798;2023-05-29T00:47:46;100796.69;;;14.07;56.14
66703;BME280;60933;46.398;-63.798;2023-05-29T00:50:14;100795.34;;;13.97;56.34
66703;BME280;60933;46.398;-63.798;2023-05-29T00:52:41;100813.69;;;13.92;55.88
66703;BME280;60933;46.398;-63.798;2023-05-29T00:55:09;100820.09;;;13.84;56.25
66703;BME280;60933;46.398;-63.798;2023-05-29T00:57:36;100822.94;;;13.76;56.60
66703;BME280;60933;46.398;-63.798;2023-05-29T01:00:05;100832.00;;;13.66;56.70
66703;BME280;60933;46.398;-63.798;2023-05-29T01:02:40;100834.84;;;13.58;55.93
66703;BME280;60933;46.398;-63.798;2023-05-29T01:05:13;100848.94;;;13.51;56.24
66703;BME280;60933;46.398;-63.798;2023-05-29T01:07:41;100846.66;;;13.41;56.92
66703;BME280;60933;46.398;-63.798;2023-05-29T01:10:08;100846.00;;;13.35;57.40
66703;BME280;60933;46.398;-63.798;2023-05-29T01:12:47;100873.25;;;13.21;58.72
66703;BME280;60933;46.398;-63.798;2023-05-29T01:16:08;100877.88;;;13.11;59.28
66703;BME280;60933;46.398;-63.798;2023-05-29T01:20:55;100877.63;;;12.92;60.05
66703;BME280;60933;46.398;-63.798;2023-05-29T01:23:47;100880.56;;;12.81;60.28
66703;BME280;60933;46.398;-63.798;2023-05-29T01:29:02;100884.75;;;12.59;59.51
66703;BME280;60933;46.398;-63.798;2023-05-29T01:31:31;100890.94;;;12.53;59.62
66703;BME280;60933;46.398;-63.798;2023-05-29T01:33:58;100903.34;;;12.43;60.84
66703;BME280;60933;46.398;-63.798;2023-05-29T01:36:26;100908.00;;;12.32;59.87
66703;BME280;60933;46.398;-63.798;2023-05-29T01:38:54;100909.84;;;12.27;59.91
66703;BME280;60933;46.398;-63.798;2023-05-29T01:41:21;100907.44;;;12.21;59.79
66703;BME280;60933;46.398;-63.798;2023-05-29T01:43:49;100916.22;;;12.15;59.57
66703;BME280;60933;46.398;-63.798;2023-05-29T01:46:17;100921.59;;;12.09;59.81
66703;BME280;60933;46.398;-63.798;2023-05-29T01:48:45;100925.22;;;12.01;59.64
66703;BME280;60933;46.398;-63.798;2023-05-29T01:51:12;100937.44;;;11.96;59.15
66703;BME280;60933;46.398;-63.798;2023-05-29T01:53:39;100928.97;;;11.90;59.41
66703;BME280;60933;46.398;-63.798;2023-05-29T01:56:06;100934.38;;;11.82;59.03
66703;BME280;60933;46.398;-63.798;2023-05-29T01:58:34;100951.72;;;11.77;59.58
66703;BME280;60933;46.398;-63.798;2023-05-29T02:01:05;100962.34;;;11.67;60.27
66703;BME280;60933;46.398;-63.798;2023-05-29T02:03:32;100979.72;;;11.61;60.83
66703;BME280;60933;46.398;-63.798;2023-05-29T02:05:59;100984.25;;;11.52;61.19
66703;BME280;60933;46.398;-63.798;2023-05-29T02:08:26;100989.63;;;11.43;61.06
66703;BME280;60933;46.398;-63.798;2023-05-29T02:10:52;100978.63;;;11.36;61.29
66703;BME280;60933;46.398;-63.798;2023-05-29T02:13:19;100980.53;;;11.28;61.25
66703;BME280;60933;46.398;-63.798;2023-05-29T02:15:46;100991.81;;;11.24;61.84
66703;BME280;60933;46.398;-63.798;2023-05-29T02:18:14;101005.81;;;11.15;63.11
66703;BME280;60933;46.398;-63.798;2023-05-29T02:20:41;101004.31;;;11.05;64.09
66703;BME280;60933;46.398;-63.798;2023-05-29T02:23:10;101005.06;;;11.10;63.07
66703;BME280;60933;46.398;-63.798;2023-05-29T02:25:36;101015.13;;;11.22;60.87
66703;BME280;60933;46.398;-63.798;2023-05-29T02:28:03;101013.66;;;11.48;59.93
66703;BME280;60933;46.398;-63.798;2023-05-29T02:30:29;101015.03;;;11.62;58.96
66703;BME280;60933;46.398;-63.798;2023-05-29T02:32:56;101012.16;;;11.74;58.42
66703;BME280;60933;46.398;-63.798;2023-05-29T02:35:22;101026.50;;;11.86;58.11
66703;BME280;60933;46.398;-63.798;2023-05-29T02:37:49;101021.22;;;11.91;57.95
66703;BME280;60933;46.398;-63.798;2023-05-29T02:40:15;101023.66;;;11.97;56.38
66703;BME280;60933;46.398;-63.798;2023-05-29T02:42:42;101021.72;;;12.05;56.48
66703;BME280;60933;46.398;-63.798;2023-05-29T02:45:08;101030.25;;;12.10;55.51
66703;BME280;60933;46.398;-63.798;2023-05-29T02:47:35;101028.44;;;12.12;55.64
66703;BME280;60933;46.398;-63.798;2023-05-29T02:50:02;101033.66;;;12.11;55.87
66703;BME280;60933;46.398;-63.798;2023-05-29T02:52:28;101033.63;;;12.12;55.76
66703;BME280;60933;46.398;-63.798;2023-05-29T02:54:56;101035.41;;;12.10;56.34
66703;BME280;60933;46.398;-63.798;2023-05-29T02:57:22;101042.41;;;12.07;56.38
66703;BME280;60933;46.398;-63.798;2023-05-29T02:59:49;101039.88;;;12.03;56.70
66703;BME280;60933;46.398;-63.798;2023-05-29T03:02:15;101046.88;;;12.00;57.01
66703;BME280;60933;46.398;-63.798;2023-05-29T03:04:41;101046.03;;;11.99;57.04
66703;BME280;60933;46.398;-63.798;2023-05-29T03:07:07;101058.94;;;11.99;56.39
66703;BME280;60933;46.398;-63.798;2023-05-29T03:09:35;101057.13;;;12.03;55.58
66703;BME280;60933;46.398;-63.798;2023-05-29T03:12:01;101060.53;;;12.07;54.77
66703;BME280;60933;46.398;-63.798;2023-05-29T03:14:27;101067.34;;;12.09;54.92
66703;BME280;60933;46.398;-63.798;2023-05-29T03:16:54;101073.47;;;12.05;55.20
66703;BME280;60933;46.398;-63.798;2023-05-29T03:19:20;101086.41;;;12.05;52.82
66703;BME280;60933;46.398;-63.798;2023-05-29T03:21:46;101092.34;;;12.09;54.21
66703;BME280;60933;46.398;-63.798;2023-05-29T03:24:12;101099.41;;;12.03;53.85
66703;BME280;60933;46.398;-63.798;2023-05-29T03:26:41;101112.41;;;12.00;54.90
66703;BME280;60933;46.398;-63.798;2023-05-29T03:29:07;101106.78;;;11.81;55.07
66703;BME280;60933;46.398;-63.798;2023-05-29T03:31:34;101129.41;;;11.73;55.39
66703;BME280;60933;46.398;-63.798;2023-05-29T03:34:00;101132.28;;;11.61;56.30
66703;BME280;60933;46.398;-63.798;2023-05-29T03:36:26;101142.09;;;11.46;56.62
66703;BME280;60933;46.398;-63.798;2023-05-29T03:38:52;101145.84;;;11.33;56.48
66703;BME280;60933;46.398;-63.798;2023-05-29T03:41:18;101152.13;;;11.19;57.79
66703;BME280;60933;46.398;-63.798;2023-05-29T03:43:45;101145.47;;;11.09;58.44
66703;BME280;60933;46.398;-63.798;2023-05-29T03:46:11;101156.94;;;10.96;58.29
66703;BME280;60933;46.398;-63.798;2023-05-29T03:48:37;101157.28;;;10.77;58.30
66703;BME280;60933;46.398;-63.798;2023-05-29T03:51:03;101156.59;;;10.66;59.61
66703;BME280;60933;46.398;-63.798;2023-05-29T03:53:30;101156.06;;;10.50;59.70
66703;BME280;60933;46.398;-63.798;2023-05-29T03:55:56;101146.91;;;10.28;58.86
66703;BME280;60933;46.398;-63.798;2023-05-29T03:58:23;101177.06;;;10.26;58.95
66703;BME280;60933;46.398;-63.798;2023-05-29T04:00:49;101171.22;;;10.15;58.56
66703;BME280;60933;46.398;-63.798;2023-05-29T04:03:15;101167.16;;;10.00;57.81
66703;BME280;60933;46.398;-63.798;2023-05-29T04:05:41;101170.69;;;9.93;58.36
66703;BME280;60933;46.398;-63.798;2023-05-29T04:08:07;101173.44;;;9.82;58.28
66703;BME280;60933;46.398;-63.798;2023-05-29T04:10:34;101179.63;;;9.70;59.44
66703;BME280;60933;46.398;-63.798;2023-05-29T04:13:01;101185.78;;;9.58;59.44
66703;BME280;60933;46.398;-63.798;2023-05-29T04:15:27;101187.69;;;9.47;59.95
66703;BME280;60933;46.398;-63.798;2023-05-29T04:17:54;101185.22;;;9.38;59.94
66703;BME280;60933;46.398;-63.798;2023-05-29T04:20:20;101190.44;;;9.31;60.28
66703;BME280;60933;46.398;-63.798;2023-05-29T04:22:47;101187.16;;;9.22;60.56
66703;BME280;60933;46.398;-63.798;2023-05-29T04:25:13;101203.50;;;9.16;60.33
66703;BME280;60933;46.398;-63.798;2023-05-29T04:27:39;101208.75;;;9.08;60.18
66703;BME280;60933;46.398;-63.798;2023-05-29T04:30:07;101214.84;;;9.02;61.03
66703;BME280;60933;46.398;-63.798;2023-05-29T04:32:33;101212.31;;;8.96;60.81
66703;BME280;60933;46.398;-63.798;2023-05-29T04:35:00;101217.56;;;8.87;61.84
66703;BME280;60933;46.398;-63.798;2023-05-29T04:37:31;101228.78;;;8.78;61.33
66703;BME280;60933;46.398;-63.798;2023-05-29T04:40:07;101228.00;;;8.71;60.98
66703;BME280;60933;46.398;-63.798;2023-05-29T04:42:37;101236.66;;;8.64;61.81
66703;BME280;60933;46.398;-63.798;2023-05-29T04:45:04;101247.88;;;8.57;62.05
66703;BME280;60933;46.398;-63.798;2023-05-29T04:47:36;101254.75;;;8.53;61.55
66703;BME280;60933;46.398;-63.798;2023-05-29T04:50:12;101269.38;;;8.45;62.25
66703;BME280;60933;46.398;-63.798;2023-05-29T04:52:39;101270.28;;;8.38;62.45
66703;BME280;60933;46.398;-63.798;2023-05-29T04:55:05;101286.59;;;8.32;62.91
66703;BME280;60933;46.398;-63.798;2023-05-29T04:57:31;101283.22;;;8.27;63.68
66703;BME280;60933;46.398;-63.798;2023-05-29T04:59:57;101286.66;;;8.20;63.96
66703;BME280;60933;46.398;-63.798;2023-05-29T05:02:24;101296.13;;;8.18;64.36
66703;BME280;60933;46.398;-63.798;2023-05-29T05:04:50;101304.75;;;8.09;64.44
66703;BME280;60933;46.398;-63.798;2023-05-29T05:07:16;101305.66;;;8.03;64.39
66703;BME280;60933;46.398;-63.798;2023-05-29T05:09:42;101305.66;;;7.99;64.42
66703;BME280;60933;46.398;-63.798;2023-05-29T05:12:08;101317.69;;;7.95;63.75
66703;BME280;60933;46.398;-63.798;2023-05-29T05:14:34;101328.81;;;7.91;64.10
66703;BME280;60933;46.398;-63.798;2023-05-29T05:17:00;101327.13;;;7.88;64.43
66703;BME280;60933;46.398;-63.798;2023-05-29T05:19:27;101326.28;;;7.82;64.31
66703;BME280;60933;46.398;-63.798;2023-05-29T05:21:53;101333.16;;;7.78;64.70
66703;BME280;60933;46.398;-63.798;2023-05-29T05:24:19;101335.75;;;7.75;64.61
66703;BME280;60933;46.398;-63.798;2023-05-29T05:26:45;101338.34;;;7.70;62.64
66703;BME280;60933;46.398;-63.798;2023-05-29T05:29:11;101339.22;;;7.66;62.67
66703;BME280;60933;46.398;-63.798;2023-05-29T05:31:37;101352.91;;;7.62;62.83
66703;BME280;60933;46.398;-63.798;2023-05-29T05:34:03;101351.22;;;7.58;63.49
66703;BME280;60933;46.398;-63.798;2023-05-29T05:36:29;101358.94;;;7.50;63.47
66703;BME280;60933;46.398;-63.798;2023-05-29T05:38:56;101369.22;;;7.49;63.40
66703;BME280;60933;46.398;-63.798;2023-05-29T05:41:22;101371.81;;;7.44;62.98
66703;BME280;60933;46.398;-63.798;2023-05-29T05:43:49;101381.22;;;7.40;62.19
66703;BME280;60933;46.398;-63.798;2023-05-29T05:46:15;101369.25;;;7.39;61.42
66703;BME280;60933;46.398;-63.798;2023-05-29T05:48:43;101366.69;;;7.38;61.31
66703;BME280;60933;46.398;-63.798;2023-05-29T05:51:09;101372.69;;;7.35;61.92
66703;BME280;60933;46.398;-63.798;2023-05-29T05:53:37;101394.94;;;7.30;60.17
66703;BME280;60933;46.398;-63.798;2023-05-29T05:56:03;101365.81;;;7.28;60.80
66703;BME280;60933;46.398;-63.798;2023-05-29T05:58:29;101376.97;;;7.24;60.54
66703;BME280;60933;46.398;-63.798;2023-05-29T06:00:55;101383.81;;;7.20;61.15
66703;BME280;60933;46.398;-63.798;2023-05-29T06:03:23;101397.53;;;7.16;60.74
66703;BME280;60933;46.398;-63.798;2023-05-29T06:05:49;101386.41;;;7.12;59.55
66703;BME280;60933;46.398;-63.798;2023-05-29T06:08:16;101412.06;;;7.09;60.87
66703;BME280;60933;46.398;-63.798;2023-05-29T06:10:42;101399.22;;;7.09;61.67
66703;BME280;60933;46.398;-63.798;2023-05-29T06:13:08;101405.19;;;7.05;61.79
66703;BME280;60933;46.398;-63.798;2023-05-29T06:15:34;101412.06;;;7.03;61.69
66703;BME280;60933;46.398;-63.798;2023-05-29T06:18:01;101415.47;;;6.99;60.70
66703;BME280;60933;46.398;-63.798;2023-05-29T06:20:28;101430.03;;;6.97;60.67
66703;BME280;60933;46.398;-63.798;2023-05-29T06:22:55;101430.00;;;6.94;61.43
66703;BME280;60933;46.398;-63.798;2023-05-29T06:25:21;101430.84;;;6.90;61.79
66703;BME280;60933;46.398;-63.798;2023-05-29T06:27:47;101434.28;;;6.87;61.62
66703;BME280;60933;46.398;-63.798;2023-05-29T06:30:14;101431.72;;;6.84;61.05
66703;BME280;60933;46.398;-63.798;2023-05-29T06:32:40;101441.13;;;6.85;62.06
66703;BME280;60933;46.398;-63.798;2023-05-29T06:35:07;101445.38;;;6.80;60.60
66703;BME280;60933;46.398;-63.798;2023-05-29T06:37:33;101446.22;;;6.74;60.55
66703;BME280;60933;46.398;-63.798;2023-05-29T06:39:59;101452.19;;;6.72;60.18
66703;BME280;60933;46.398;-63.798;2023-05-29T06:42:25;101453.94;;;6.70;60.96
66703;BME280;60933;46.398;-63.798;2023-05-29T06:44:51;101446.22;;;6.65;60.80
66703;BME280;60933;46.398;-63.798;2023-05-29T06:47:17;101444.47;;;6.61;60.44
66703;BME280;60933;46.398;-63.798;2023-05-29T06:49:43;101452.19;;;6.58;59.10
66703;BME280;60933;46.398;-63.798;2023-05-29T06:52:09;101449.59;;;6.56;59.25
66703;BME280;60933;46.398;-63.798;2023-05-29T06:54:35;101449.59;;;6.55;60.21
66703;BME280;60933;46.398;-63.798;2023-05-29T06:57:01;101453.00;;;6.51;59.94
66703;BME280;60933;46.398;-63.798;2023-05-29T06:59:27;101464.97;;;6.47;60.23
66703;BME280;60933;46.398;-63.798;2023-05-29T07:01:53;101463.22;;;6.44;59.70
66703;BME280;60933;46.398;-63.798;2023-05-29T07:04:20;101458.94;;;6.39;58.00
66703;BME280;60933;46.398;-63.798;2023-05-29T07:06:46;101472.63;;;6.41;58.83
66703;BME280;60933;46.398;-63.798;2023-05-29T07:09:12;101460.66;;;6.35;59.28
66703;BME280;60933;46.398;-63.798;2023-05-29T07:11:38;101470.03;;;6.34;59.72
66703;BME280;60933;46.398;-63.798;2023-05-29T07:14:04;101505.94;;;6.34;58.70
66703;BME280;60933;46.398;-63.798;2023-05-29T07:16:30;101477.72;;;6.34;58.57
66703;BME280;60933;46.398;-63.798;2023-05-29T07:18:56;101469.16;;;6.31;59.12
66703;BME280;60933;46.398;-63.798;2023-05-29T07:21:23;101484.56;;;6.28;58.94
66703;BME280;60933;46.398;-63.798;2023-05-29T07:23:49;101486.25;;;6.24;59.20
66703;BME280;60933;46.398;-63.798;2023-05-29T07:26:15;101485.38;;;6.21;59.34
66703;BME280;60933;46.398;-63.798;2023-05-29T07:28:41;101504.97;;;6.17;59.25
66703;BME280;60933;46.398;-63.798;2023-05-29T07:31:07;101504.06;;;6.04;59.84
66703;BME280;60933;46.398;-63.798;2023-05-29T07:33:34;101515.22;;;6.12;59.89
66703;BME280;60933;46.398;-63.798;2023-05-29T07:36:00;101521.16;;;6.10;58.67
66703;BME280;60933;46.398;-63.798;2023-05-29T07:38:26;101525.41;;;6.06;58.13
66703;BME280;60933;46.398;-63.798;2023-05-29T07:40:52;101537.34;;;6.02;58.88
66703;BME280;60933;46.398;-63.798;2023-05-29T07:43:18;101535.63;;;6.00;57.38
66703;BME280;60933;46.398;-63.798;2023-05-29T07:45:45;101537.28;;;5.98;56.51
66703;BME280;60933;46.398;-63.798;2023-05-29T07:48:11;101554.34;;;5.94;57.20
66703;BME280;60933;46.398;-63.798;2023-05-29T07:50:37;101532.13;;;5.92;58.94
66703;BME280;60933;46.398;-63.798;2023-05-29T07:53:03;101538.97;;;5.93;58.40
66703;BME280;60933;46.398;-63.798;2023-05-29T07:55:29;101544.06;;;5.86;57.90
66703;BME280;60933;46.398;-63.798;2023-05-29T07:57:55;101569.69;;;5.88;57.64
66703;BME280;60933;46.398;-63.798;2023-05-29T08:00:21;101536.38;;;5.86;57.77
66703;BME280;60933;46.398;-63.798;2023-05-29T08:02:48;101550.00;;;5.82;59.33
66703;BME280;60933;46.398;-63.798;2023-05-29T08:05:14;101557.66;;;5.81;60.75
66703;BME280;60933;46.398;-63.798;2023-05-29T08:07:40;101563.69;;;5.84;62.26
66703;BME280;60933;46.398;-63.798;2023-05-29T08:10:07;101578.22;;;5.85;62.33
66703;BME280;60933;46.398;-63.798;2023-05-29T08:12:33;101565.41;;;5.85;62.61
66703;BME280;60933;46.398;-63.798;2023-05-29T08:15:02;101587.63;;;5.85;61.60
66703;BME280;60933;46.398;-63.798;2023-05-29T08:17:29;101578.97;;;5.72;60.05
66703;BME280;60933;46.398;-63.798;2023-05-29T08:19:55;101605.47;;;5.77;60.61
66703;BME280;60933;46.398;-63.798;2023-05-29T08:22:28;101592.59;;;5.69;61.54
66703;BME280;60933;46.398;-63.798;2023-05-29T08:24:55;101633.59;;;5.71;61.26
66703;BME280;60933;46.398;-63.798;2023-05-29T08:27:21;101619.94;;;5.70;61.60
66703;BME280;60933;46.398;-63.798;2023-05-29T08:29:47;101635.28;;;5.69;61.15
66703;BME280;60933;46.398;-63.798;2023-05-29T08:32:13;101619.91;;;5.69;60.84
66703;BME280;60933;46.398;-63.798;2023-05-29T08:34:39;101606.25;;;5.70;60.68
66703;BME280;60933;46.398;-63.798;2023-05-29T08:37:07;101625.09;;;5.74;61.85
66703;BME280;60933;46.398;-63.798;2023-05-29T08:39:33;101630.22;;;5.75;62.39
66703;BME280;60933;46.398;-63.798;2023-05-29T08:42:04;101626.84;;;5.78;62.57
66703;BME280;60933;46.398;-63.798;2023-05-29T08:44:35;101647.34;;;5.79;61.88
66703;BME280;60933;46.398;-63.798;2023-05-29T08:47:06;101641.34;;;5.79;62.03
66703;BME280;60933;46.398;-63.798;2023-05-29T08:49:41;101642.22;;;5.79;62.62
66703;BME280;60933;46.398;-63.798;2023-05-29T08:52:15;101656.75;;;5.82;62.76
66703;BME280;60933;46.398;-63.798;2023-05-29T08:54:43;101649.06;;;5.83;62.93
66703;BME280;60933;46.398;-63.798;2023-05-29T08:57:11;101634.53;;;5.79;60.77
66703;BME280;60933;46.398;-63.798;2023-05-29T08:59:41;101657.59;;;5.79;61.00
66703;BME280;60933;46.398;-63.798;2023-05-29T09:02:08;101665.28;;;5.79;61.09
66703;BME280;60933;46.398;-63.798;2023-05-29T09:04:34;101657.56;;;5.76;60.41
66703;BME280;60933;46.398;-63.798;2023-05-29T09:07:00;101646.41;;;5.71;61.56
66703;BME280;60933;46.398;-63.798;2023-05-29T09:09:26;101670.31;;;5.71;60.64
66703;BME280;60933;46.398;-63.798;2023-05-29T09:11:57;101671.16;;;5.69;60.82
66703;BME280;60933;46.398;-63.798;2023-05-29T09:14:41;101689.91;;;5.68;60.20
66703;BME280;60933;46.398;-63.798;2023-05-29T09:17:11;101687.34;;;5.65;60.79
66703;BME280;60933;46.398;-63.798;2023-05-29T09:19:38;101687.34;;;5.66;61.59
66703;BME280;60933;46.398;-63.798;2023-05-29T09:22:13;101680.50;;;5.64;60.91
66703;BME280;60933;46.398;-63.798;2023-05-29T09:24:42;101686.50;;;5.66;60.55
66703;BME280;60933;46.398;-63.798;2023-05-29T09:27:09;101668.56;;;5.67;60.45
66703;BME280;60933;46.398;-63.798;2023-05-29T09:29:41;101675.44;;;5.68;61.51
66703;BME280;60933;46.398;-63.798;2023-05-29T09:32:09;101689.13;;;5.75;60.78
66703;BME280;60933;46.398;-63.798;2023-05-29T09:34:36;101693.41;;;5.76;60.20
66703;BME280;60933;46.398;-63.798;2023-05-29T09:37:03;101693.47;;;5.79;60.89
66703;BME280;60933;46.398;-63.798;2023-05-29T09:39:38;101684.06;;;5.80;61.06
66703;BME280;60933;46.398;-63.798;2023-05-29T09:42:10;101697.75;;;5.82;62.36
66703;BME280;60933;46.398;-63.798;2023-05-29T09:44:36;101707.16;;;5.81;61.30
66703;BME280;60933;46.398;-63.798;2023-05-29T09:47:03;101696.03;;;5.78;62.10
66703;BME280;60933;46.398;-63.798;2023-05-29T09:49:31;101701.16;;;5.81;61.78
66703;BME280;60933;46.398;-63.798;2023-05-29T09:51:58;101698.59;;;5.79;62.43
66703;BME280;60933;46.398;-63.798;2023-05-29T09:54:27;101707.16;;;5.81;62.43
66703;BME280;60933;46.398;-63.798;2023-05-29T09:56:58;101686.63;;;5.77;61.28
66703;BME280;60933;46.398;-63.798;2023-05-29T09:59:28;101719.97;;;5.84;62.17
66703;BME280;60933;46.398;-63.798;2023-05-29T10:02:02;101726.84;;;5.87;62.55
66703;BME280;60933;46.398;-63.798;2023-05-29T10:04:32;101721.69;;;5.84;61.16
66703;BME280;60933;46.398;-63.798;2023-05-29T10:07:03;101730.28;;;5.86;61.99
66703;BME280;60933;46.398;-63.798;2023-05-29T10:09:30;101727.72;;;5.88;62.58
66703;BME280;60933;46.398;-63.798;2023-05-29T10:12:01;101727.66;;;5.84;61.99
66703;BME280;60933;46.398;-63.798;2023-05-29T10:14:31;101741.41;;;5.90;62.49
66703;BME280;60933;46.398;-63.798;2023-05-29T10:16:58;101744.78;;;5.87;61.97
66703;BME280;60933;46.398;-63.798;2023-05-29T10:19:29;101751.50;;;5.77;61.91
66703;BME280;60933;46.398;-63.798;2023-05-29T10:21:56;101760.94;;;5.80;62.59
66703;BME280;60933;46.398;-63.798;2023-05-29T10:24:24;101754.06;;;5.74;62.76
66703;BME280;60933;46.398;-63.798;2023-05-29T10:26:51;101757.53;;;5.79;62.43
66703;BME280;60933;46.398;-63.798;2023-05-29T10:40:12;101775.53;;;5.85;63.58
66703;BME280;60933;46.398;-63.798;2023-05-29T10:42:43;101778.13;;;5.89;63.72
66703;BME280;60933;46.398;-63.798;2023-05-29T10:45:09;101780.75;;;5.95;63.54
66703;BME280;60933;46.398;-63.798;2023-05-29T10:47:38;101780.72;;;5.92;63.81
66703;BME280;60933;46.398;-63.798;2023-05-29T10:50:05;101786.66;;;5.88;63.65
66703;BME280;60933;46.398;-63.798;2023-05-29T10:52:33;101792.63;;;5.86;62.60
66703;BME280;60933;46.398;-63.798;2023-05-29T10:54:59;101797.78;;;5.90;63.10
66703;BME280;60933;46.398;-63.798;2023-05-29T10:57:28;101793.59;;;5.98;63.38
66703;BME280;60933;46.398;-63.798;2023-05-29T11:00:07;101814.22;;;6.06;63.24
66703;BME280;60933;46.398;-63.798;2023-05-29T11:02:40;101803.19;;;6.11;63.28
66703;BME280;60933;46.398;-63.798;2023-05-29T11:05:19;101801.47;;;6.09;63.84
66703;BME280;60933;46.398;-63.798;2023-05-29T11:07:56;101810.00;;;6.09;63.83
66703;BME280;60933;46.398;-63.798;2023-05-29T11:11:05;101799.84;;;6.18;64.56
66703;BME280;60933;46.398;-63.798;2023-05-29T11:13:36;101811.91;;;6.29;63.98
66703;BME280;60933;46.398;-63.798;2023-05-29T11:18:56;101822.13;;;6.26;62.22
66703;BME280;60933;46.398;-63.798;2023-05-29T11:24:06;101831.63;;;6.36;63.44
66703;BME280;60933;46.398;-63.798;2023-05-29T11:26:33;101837.69;;;6.40;64.40
66703;BME280;60933;46.398;-63.798;2023-05-29T11:29:00;101848.03;;;6.51;64.86
66703;BME280;60933;46.398;-63.798;2023-05-29T11:31:28;101844.59;;;6.50;63.07
66703;BME280;60933;46.398;-63.798;2023-05-29T11:33:59;101840.34;;;6.52;62.92
66703;BME280;60933;46.398;-63.798;2023-05-29T11:36:33;101852.31;;;6.52;63.10
66703;BME280;60933;46.398;-63.798;2023-05-29T11:39:00;101848.94;;;6.54;62.67
66703;BME280;60933;46.398;-63.798;2023-05-29T11:41:27;101854.03;;;6.51;62.06
66703;BME280;60933;46.398;-63.798;2023-05-29T11:44:01;101853.09;;;6.44;62.27
66703;BME280;60933;46.398;-63.798;2023-05-29T11:46:31;101852.31;;;6.52;62.79
66703;BME280;60933;46.398;-63.798;2023-05-29T11:48:59;101869.41;;;6.53;62.65
66703;BME280;60933;46.398;-63.798;2023-05-29T11:51:26;101884.06;;;6.63;62.55
66703;BME280;60933;46.398;-63.798;2023-05-29T11:53:52;101878.97;;;6.66;61.85
66703;BME280;60933;46.398;-63.798;2023-05-29T11:56:27;101874.66;;;6.62;62.38
66703;BME280;60933;46.398;-63.798;2023-05-29T11:58:55;101878.16;;;6.70;62.91
66703;BME280;60933;46.398;-63.798;2023-05-29T12:01:23;101890.97;;;6.72;62.59
66703;BME280;60933;46.398;-63.798;2023-05-29T12:03:50;101875.63;;;6.76;61.82
66703;BME280;60933;46.398;-63.798;2023-05-29T12:06:33;101879.22;;;6.95;63.20
66703;BME280;60933;46.398;-63.798;2023-05-29T12:09:01;101882.78;;;7.11;61.70
66703;BME280;60933;46.398;-63.798;2023-05-29T12:11:29;101869.97;;;7.13;60.80
66703;BME280;60933;46.398;-63.798;2023-05-29T12:13:57;101884.44;;;7.05;61.07
66703;BME280;60933;46.398;-63.798;2023-05-29T12:16:23;101890.47;;;7.08;60.88
66703;BME280;60933;46.398;-63.798;2023-05-29T12:18:52;101904.22;;;7.15;61.15
66703;BME280;60933;46.398;-63.798;2023-05-29T12:21:20;101917.91;;;7.16;62.01
66703;BME280;60933;46.398;-63.798;2023-05-29T12:23:46;101916.94;;;7.03;61.50
66703;BME280;60933;46.398;-63.798;2023-05-29T12:26:12;101929.84;;;7.12;62.31
66703;BME280;60933;46.398;-63.798;2023-05-29T12:28:45;101941.72;;;6.97;61.17
66703;BME280;60933;46.398;-63.798;2023-05-29T12:31:11;101949.41;;;6.96;60.83
66703;BME280;60933;46.398;-63.798;2023-05-29T12:33:42;101941.81;;;7.07;61.43
66703;BME280;60933;46.398;-63.798;2023-05-29T12:36:12;101954.59;;;7.02;60.02
66703;BME280;60933;46.398;-63.798;2023-05-29T12:38:49;101955.34;;;6.92;61.45
66703;BME280;60933;46.398;-63.798;2023-05-29T12:41:29;101962.16;;;6.88;61.20
66703;BME280;60933;46.398;-63.798;2023-05-29T12:44:01;101961.25;;;6.81;61.49
66703;BME280;60933;46.398;-63.798;2023-05-29T12:46:38;101968.22;;;6.95;62.22
66703;BME280;60933;46.398;-63.798;2023-05-29T12:49:18;101966.53;;;6.99;61.42
66703;BME280;60933;46.398;-63.798;2023-05-29T12:51:49;101966.50;;;6.94;61.98
66703;BME280;60933;46.398;-63.798;2023-05-29T12:54:16;101954.56;;;6.96;61.57
66703;BME280;60933;46.398;-63.798;2023-05-29T12:56:43;101972.56;;;7.02;61.10
66703;BME280;60933;46.398;-63.798;2023-05-29T12:59:11;101979.44;;;7.06;60.57
66703;BME280;60933;46.398;-63.798;2023-05-29T13:01:38;101982.16;;;7.22;61.53
66703;BME280;60933;46.398;-63.798;2023-05-29T13:04:07;101977.06;;;7.28;60.30